Weather at Hong Kong International Airport

Public forecast

Using degrees Celsius for public forecast. Weather courtesy of forecast.io.

Current aviation weather report (METAR) for Hong Kong International Airport

2023/02/04 08:00 (retrieved 32 minutes ago)

VHHH 040800Z 09008KT 9999 FEW020 SCT035 20/13 Q1015 NOSIG

Aviation forecast (TAF) for Hong Kong International Airport

2023/02/04 09:07 (retrieved 0 seconds ago)

TAF VHHH 040800Z 0409/0515 10010KT 9999 FEW015 SCT035 TX21/0506Z TN17/0423Z